sensor_id;sensor_type;location;lat;lon;timestamp;pressure;altitude;pressure_sealevel;temperature;humidity
71149;BME280;59072;42.144;25.200;2023-09-07T00:01:29;100526.75;;;21.28;100.00
71149;BME280;59072;42.144;25.200;2023-09-07T00:03:55;100519.72;;;21.22;100.00
71149;BME280;59072;42.144;25.200;2023-09-07T00:06:20;100523.06;;;21.04;100.00
71149;BME280;59072;42.144;25.200;2023-09-07T00:08:46;100522.53;;;21.07;100.00
71149;BME280;59072;42.144;25.200;2023-09-07T00:11:40;100528.00;;;20.97;100.00
71149;BME280;59072;42.144;25.200;2023-09-07T00:14:06;100531.09;;;21.30;100.00
71149;BME280;59072;42.144;25.200;2023-09-07T00:16:33;100528.59;;;21.38;100.00
71149;BME280;59072;42.144;25.200;2023-09-07T00:19:03;100536.53;;;21.30;100.00
71149;BME280;59072;42.144;25.200;2023-09-07T00:21:29;100545.25;;;21.21;100.00
71149;BME280;59072;42.144;25.200;2023-09-07T00:23:54;100531.72;;;21.06;100.00
71149;BME280;59072;42.144;25.200;2023-09-07T00:26:26;100536.94;;;21.02;100.00
71149;BME280;59072;42.144;25.200;2023-09-07T00:28:54;100530.16;;;20.95;100.00
71149;BME280;59072;42.144;25.200;2023-09-07T00:31:20;100532.63;;;20.86;100.00
71149;BME280;59072;42.144;25.200;2023-09-07T00:33:45;100532.88;;;20.90;100.00
71149;BME280;59072;42.144;25.200;2023-09-07T00:36:10;100526.94;;;20.82;100.00
71149;BME280;59072;42.144;25.200;2023-09-07T00:38:36;100532.34;;;20.93;100.00
71149;BME280;59072;42.144;25.200;2023-09-07T00:41:01;100527.78;;;20.73;100.00
71149;BME280;59072;42.144;25.200;2023-09-07T00:43:27;100516.41;;;20.65;100.00
71149;BME280;59072;42.144;25.200;2023-09-07T00:45:52;100525.06;;;20.67;100.00
71149;BME280;59072;42.144;25.200;2023-09-07T00:48:18;100531.00;;;20.85;100.00
71149;BME280;59072;42.144;25.200;2023-09-07T00:50:44;100527.50;;;20.79;100.00
71149;BME280;59072;42.144;25.200;2023-09-07T00:53:10;100518.81;;;20.77;100.00
71149;BME280;59072;42.144;25.200;2023-09-07T00:55:37;100525.31;;;20.81;100.00
71149;BME280;59072;42.144;25.200;2023-09-07T00:58:05;100529.66;;;20.82;100.00
71149;BME280;59072;42.144;25.200;2023-09-07T01:00:31;100519.81;;;21.02;100.00
71149;BME280;59072;42.144;25.200;2023-09-07T01:02:57;100520.69;;;20.82;100.00
71149;BME280;59072;42.144;25.200;2023-09-07T01:05:43;100515.81;;;20.84;100.00
71149;BME280;59072;42.144;25.200;2023-09-07T01:08:17;100508.03;;;20.62;100.00
71149;BME280;59072;42.144;25.200;2023-09-07T01:10:45;100514.00;;;20.64;100.00
71149;BME280;59072;42.144;25.200;2023-09-07T01:13:10;100510.19;;;20.55;100.00
71149;BME280;59072;42.144;25.200;2023-09-07T01:15:37;100507.22;;;20.66;100.00
71149;BME280;59072;42.144;25.200;2023-09-07T01:18:03;100506.88;;;20.83;100.00
71149;BME280;59072;42.144;25.200;2023-09-07T01:20:35;100499.38;;;20.60;100.00
71149;BME280;59072;42.144;25.200;2023-09-07T01:23:02;100505.88;;;20.48;100.00
71149;BME280;59072;42.144;25.200;2023-09-07T01:25:28;100511.28;;;20.59;100.00
71149;BME280;59072;42.144;25.200;2023-09-07T01:28:20;100509.41;;;20.44;100.00
71149;BME280;59072;42.144;25.200;2023-09-07T01:30:55;100504.81;;;20.29;100.00
71149;BME280;59072;42.144;25.200;2023-09-07T01:33:20;100508.59;;;20.28;100.00
71149;BME280;59072;42.144;25.200;2023-09-07T01:35:46;100505.63;;;20.24;100.00
71149;BME280;59072;42.144;25.200;2023-09-07T01:38:11;100511.59;;;20.11;100.00
71149;BME280;59072;42.144;25.200;2023-09-07T01:40:37;100509.16;;;20.10;100.00
71149;BME280;59072;42.144;25.200;2023-09-07T01:43:24;100510.47;;;20.33;100.00
71149;BME280;59072;42.144;25.200;2023-09-07T01:45:49;100512.13;;;20.08;100.00
71149;BME280;59072;42.144;25.200;2023-09-07T01:48:15;100506.72;;;20.08;100.00
71149;BME280;59072;42.144;25.200;2023-09-07T01:50:41;100505.66;;;20.09;100.00
71149;BME280;59072;42.144;25.200;2023-09-07T01:53:46;100512.41;;;20.01;100.00
71149;BME280;59072;42.144;25.200;2023-09-07T01:56:12;100513.78;;;19.99;100.00
71149;BME280;59072;42.144;25.200;2023-09-07T01:59:06;100514.84;;;20.03;100.00
71149;BME280;59072;42.144;25.200;2023-09-07T02:01:58;100511.31;;;19.87;100.00
71149;BME280;59072;42.144;25.200;2023-09-07T02:04:44;100505.38;;;20.00;100.00
71149;BME280;59072;42.144;25.200;2023-09-07T02:07:12;100511.34;;;20.13;100.00
71149;BME280;59072;42.144;25.200;2023-09-07T02:09:47;100516.75;;;20.02;100.00
71149;BME280;59072;42.144;25.200;2023-09-07T02:12:12;100507.00;;;19.91;100.00
71149;BME280;59072;42.144;25.200;2023-09-07T02:14:56;100514.03;;;20.18;100.00
71149;BME280;59072;42.144;25.200;2023-09-07T02:17:21;100518.91;;;20.05;100.00
71149;BME280;59072;42.144;25.200;2023-09-07T02:20:05;100515.94;;;19.97;100.00
71149;BME280;59072;42.144;25.200;2023-09-07T02:22:58;100507.53;;;19.78;100.00
71149;BME280;59072;42.144;25.200;2023-09-07T02:25:42;100509.72;;;19.96;100.00
71149;BME280;59072;42.144;25.200;2023-09-07T02:28:08;100508.56;;;19.66;100.00
71149;BME280;59072;42.144;25.200;2023-09-07T02:30:44;100501.56;;;19.71;100.00
71149;BME280;59072;42.144;25.200;2023-09-07T02:33:10;100504.28;;;19.91;100.00
71149;BME280;59072;42.144;25.200;2023-09-07T02:35:53;100515.38;;;19.79;100.00
71149;BME280;59072;42.144;25.200;2023-09-07T02:38:47;100506.91;;;19.55;100.00
71149;BME280;59072;42.144;25.200;2023-09-07T02:41:12;100506.38;;;19.63;100.00
71149;BME280;59072;42.144;25.200;2023-09-07T02:43:49;100517.28;;;19.74;100.00
71149;BME280;59072;42.144;25.200;2023-09-07T02:46:15;100510.44;;;19.51;100.00
71149;BME280;59072;42.144;25.200;2023-09-07T02:48:50;100517.28;;;19.79;100.00
71149;BME280;59072;42.144;25.200;2023-09-07T02:51:15;100523.50;;;19.74;100.00
71149;BME280;59072;42.144;25.200;2023-09-07T02:53:53;100518.28;;;19.67;100.00
71149;BME280;59072;42.144;25.200;2023-09-07T02:56:19;100511.88;;;19.74;100.00
71149;BME280;59072;42.144;25.200;2023-09-07T02:59:23;100500.44;;;19.61;100.00
71149;BME280;59072;42.144;25.200;2023-09-07T03:02:09;100505.63;;;19.83;100.00
71149;BME280;59072;42.144;25.200;2023-09-07T03:04:34;100510.75;;;19.70;100.00
71149;BME280;59072;42.144;25.200;2023-09-07T03:07:01;100496.59;;;19.37;100.00
71149;BME280;59072;42.144;25.200;2023-09-07T03:10:02;100517.72;;;19.40;100.00
71149;BME280;59072;42.144;25.200;2023-09-07T03:12:28;100519.38;;;19.56;100.00
71149;BME280;59072;42.144;25.200;2023-09-07T03:14:53;100519.66;;;19.60;100.00
71149;BME280;59072;42.144;25.200;2023-09-07T03:17:19;100523.69;;;19.57;100.00
71149;BME280;59072;42.144;25.200;2023-09-07T03:19:46;100518.03;;;19.59;100.00
71149;BME280;59072;42.144;25.200;2023-09-07T03:22:44;100518.84;;;19.64;100.00
71149;BME280;59072;42.144;25.200;2023-09-07T03:25:28;100521.00;;;19.52;100.00
71149;BME280;59072;42.144;25.200;2023-09-07T03:27:53;100522.06;;;19.46;100.00
71149;BME280;59072;42.144;25.200;2023-09-07T03:30:31;100526.38;;;19.42;100.00
71149;BME280;59072;42.144;25.200;2023-09-07T03:32:56;100519.88;;;19.38;100.00
71149;BME280;59072;42.144;25.200;2023-09-07T03:35:33;100510.09;;;19.26;100.00
71149;BME280;59072;42.144;25.200;2023-09-07T03:37:59;100515.25;;;19.28;100.00
71149;BME280;59072;42.144;25.200;2023-09-07T03:40:33;100520.91;;;19.21;100.00
71149;BME280;59072;42.144;25.200;2023-09-07T03:42:59;100520.31;;;19.14;100.00
71149;BME280;59072;42.144;25.200;2023-09-07T03:45:24;100526.94;;;19.54;100.00
71149;BME280;59072;42.144;25.200;2023-09-07T03:48:13;100526.47;;;19.73;100.00
71149;BME280;59072;42.144;25.200;2023-09-07T03:50:38;100530.97;;;19.41;100.00
71149;BME280;59072;42.144;25.200;2023-09-07T03:53:36;100528.50;;;19.30;100.00
71149;BME280;59072;42.144;25.200;2023-09-07T03:56:01;100539.28;;;19.19;100.00
71149;BME280;59072;42.144;25.200;2023-09-07T03:58:36;100533.78;;;18.99;100.00
71149;BME280;59072;42.144;25.200;2023-09-07T04:01:20;100539.41;;;18.87;100.00
71149;BME280;59072;42.144;25.200;2023-09-07T04:03:45;100529.31;;;18.72;100.00
71149;BME280;59072;42.144;25.200;2023-09-07T04:06:37;100541.66;;;18.58;100.00
71149;BME280;59072;42.144;25.200;2023-09-07T04:09:30;100542.38;;;18.48;100.00
71149;BME280;59072;42.144;25.200;2023-09-07T04:11:56;100544.91;;;18.65;100.00
71149;BME280;59072;42.144;25.200;2023-09-07T04:14:21;100545.47;;;18.67;100.00
71149;BME280;59072;42.144;25.200;2023-09-07T04:17:13;100545.97;;;18.59;100.00
71149;BME280;59072;42.144;25.200;2023-09-07T04:20:07;100538.88;;;18.47;100.00
71149;BME280;59072;42.144;25.200;2023-09-07T04:23:06;100552.41;;;18.53;100.00
71149;BME280;59072;42.144;25.200;2023-09-07T04:25:31;100549.50;;;18.64;100.00
71149;BME280;59072;42.144;25.200;2023-09-07T04:28:09;100556.72;;;18.86;100.00
71149;BME280;59072;42.144;25.200;2023-09-07T04:31:07;100551.72;;;18.73;100.00
71149;BME280;59072;42.144;25.200;2023-09-07T04:33:33;100549.56;;;18.70;100.00
71149;BME280;59072;42.144;25.200;2023-09-07T04:36:12;100538.47;;;18.66;100.00
71149;BME280;59072;42.144;25.200;2023-09-07T04:38:38;100547.47;;;18.44;100.00
71149;BME280;59072;42.144;25.200;2023-09-07T04:41:13;100554.00;;;18.48;100.00
71149;BME280;59072;42.144;25.200;2023-09-07T04:43:41;100542.69;;;18.52;100.00
71149;BME280;59072;42.144;25.200;2023-09-07T04:46:26;100556.34;;;18.77;100.00
71149;BME280;59072;42.144;25.200;2023-09-07T04:49:15;100558.88;;;18.89;100.00
71149;BME280;59072;42.144;25.200;2023-09-07T04:51:40;100566.09;;;18.78;100.00
71149;BME280;59072;42.144;25.200;2023-09-07T04:54:06;100556.75;;;18.59;100.00
71149;BME280;59072;42.144;25.200;2023-09-07T04:56:31;100559.03;;;18.72;100.00
71149;BME280;59072;42.144;25.200;2023-09-07T04:59:20;100573.03;;;19.06;100.00
71149;BME280;59072;42.144;25.200;2023-09-07T05:01:45;100570.72;;;18.83;100.00
71149;BME280;59072;42.144;25.200;2023-09-07T05:04:11;100566.69;;;18.85;100.00
71149;BME280;59072;42.144;25.200;2023-09-07T05:06:38;100551.06;;;18.93;100.00
71149;BME280;59072;42.144;25.200;2023-09-07T05:09:22;100555.97;;;19.06;100.00
71149;BME280;59072;42.144;25.200;2023-09-07T05:11:48;100567.03;;;18.99;100.00
71149;BME280;59072;42.144;25.200;2023-09-07T05:14:23;100565.22;;;19.20;100.00
71149;BME280;59072;42.144;25.200;2023-09-07T05:16:49;100558.22;;;19.24;100.00
71149;BME280;59072;42.144;25.200;2023-09-07T05:19:23;100552.84;;;19.30;100.00
71149;BME280;59072;42.144;25.200;2023-09-07T05:21:49;100550.16;;;19.40;100.00
71149;BME280;59072;42.144;25.200;2023-09-07T05:24:50;100557.22;;;19.51;100.00
71149;BME280;59072;42.144;25.200;2023-09-07T05:27:27;100549.22;;;19.72;100.00
71149;BME280;59072;42.144;25.200;2023-09-07T05:29:53;100543.81;;;19.82;100.00
71149;BME280;59072;42.144;25.200;2023-09-07T05:32:27;100561.16;;;20.22;100.00
71149;BME280;59072;42.144;25.200;2023-09-07T05:34:52;100551.91;;;20.48;100.00
71149;BME280;59072;42.144;25.200;2023-09-07T05:37:30;100550.00;;;20.70;100.00
71149;BME280;59072;42.144;25.200;2023-09-07T05:39:56;100558.69;;;20.77;100.00
71149;BME280;59072;42.144;25.200;2023-09-07T05:42:21;100557.84;;;20.81;100.00
71149;BME280;59072;42.144;25.200;2023-09-07T05:44:46;100559.69;;;20.96;100.00
71149;BME280;59072;42.144;25.200;2023-09-07T05:47:34;100564.81;;;21.13;100.00
71149;BME280;59072;42.144;25.200;2023-09-07T05:49:59;100564.72;;;21.34;100.00
71149;BME280;59072;42.144;25.200;2023-09-07T05:52:34;100555.97;;;21.47;100.00
71149;BME280;59072;42.144;25.200;2023-09-07T05:54:59;100558.06;;;21.65;100.00
71149;BME280;59072;42.144;25.200;2023-09-07T05:57:24;100554.84;;;21.58;100.00
71149;BME280;59072;42.144;25.200;2023-09-07T05:59:52;100570.06;;;21.54;100.00
71149;BME280;59072;42.144;25.200;2023-09-07T06:02:37;100569.50;;;21.57;100.00
71149;BME280;59072;42.144;25.200;2023-09-07T06:05:02;100559.22;;;21.54;100.00
71149;BME280;59072;42.144;25.200;2023-09-07T06:07:48;100567.75;;;21.77;100.00
71149;BME280;59072;42.144;25.200;2023-09-07T06:10:17;100567.84;;;21.66;100.00
71149;BME280;59072;42.144;25.200;2023-09-07T06:12:50;100564.78;;;21.78;99.68
71149;BME280;59072;42.144;25.200;2023-09-07T06:15:16;100551.00;;;21.64;100.00
71149;BME280;59072;42.144;25.200;2023-09-07T06:17:50;100567.19;;;21.80;100.00
71149;BME280;59072;42.144;25.200;2023-09-07T06:20:16;100566.06;;;21.86;100.00
71149;BME280;59072;42.144;25.200;2023-09-07T06:22:52;100565.84;;;22.17;96.82
71149;BME280;59072;42.144;25.200;2023-09-07T06:25:17;100572.25;;;22.31;95.90
71149;BME280;59072;42.144;25.200;2023-09-07T06:30:26;100575.06;;;22.79;93.10
71149;BME280;59072;42.144;25.200;2023-09-07T06:32:55;100581.56;;;22.83;91.29
71149;BME280;59072;42.144;25.200;2023-09-07T06:35:21;100583.00;;;23.00;91.40
71149;BME280;59072;42.144;25.200;2023-09-07T06:38:02;100575.41;;;23.02;92.14
71149;BME280;59072;42.144;25.200;2023-09-07T06:40:27;100574.31;;;23.03;92.46
71149;BME280;59072;42.144;25.200;2023-09-07T06:43:02;100571.59;;;22.98;93.03
71149;BME280;59072;42.144;25.200;2023-09-07T06:45:34;100560.44;;;22.75;93.57
71149;BME280;59072;42.144;25.200;2023-09-07T06:48:03;100579.78;;;22.98;92.56
71149;BME280;59072;42.144;25.200;2023-09-07T06:50:29;100583.50;;;23.07;91.41
71149;BME280;59072;42.144;25.200;2023-09-07T06:53:07;100579.41;;;23.10;92.88
71149;BME280;59072;42.144;25.200;2023-09-07T06:55:32;100584.38;;;23.02;92.31
71149;BME280;59072;42.144;25.200;2023-09-07T06:58:06;100577.78;;;22.79;93.30
71149;BME280;59072;42.144;25.200;2023-09-07T07:00:32;100577.28;;;22.77;94.62
71149;BME280;59072;42.144;25.200;2023-09-07T07:03:15;100580.94;;;22.92;94.27
71149;BME280;59072;42.144;25.200;2023-09-07T07:05:41;100578.69;;;22.99;93.36
71149;BME280;59072;42.144;25.200;2023-09-07T07:08:07;100587.03;;;23.32;91.51
71149;BME280;59072;42.144;25.200;2023-09-07T07:11:02;100592.38;;;23.37;91.82
71149;BME280;59072;42.144;25.200;2023-09-07T07:13:27;100585.41;;;23.50;87.94
71149;BME280;59072;42.144;25.200;2023-09-07T07:16:06;100598.47;;;23.72;86.30
71149;BME280;59072;42.144;25.200;2023-09-07T07:18:31;100603.03;;;23.76;85.26
71149;BME280;59072;42.144;25.200;2023-09-07T07:21:29;100583.97;;;23.76;85.55
71149;BME280;59072;42.144;25.200;2023-09-07T07:23:55;100579.63;;;23.94;84.93
71149;BME280;59072;42.144;25.200;2023-09-07T07:26:29;100590.97;;;24.01;82.63
71149;BME280;59072;42.144;25.200;2023-09-07T07:28:59;100591.88;;;23.97;81.61
71149;BME280;59072;42.144;25.200;2023-09-07T07:31:45;100578.16;;;24.02;81.32
71149;BME280;59072;42.144;25.200;2023-09-07T07:34:33;100592.09;;;24.33;78.72
71149;BME280;59072;42.144;25.200;2023-09-07T07:36:59;100586.47;;;24.43;77.76
71149;BME280;59072;42.144;25.200;2023-09-07T07:39:34;100591.53;;;24.83;73.65
71149;BME280;59072;42.144;25.200;2023-09-07T07:41:59;100589.84;;;25.29;71.70
71149;BME280;59072;42.144;25.200;2023-09-07T07:44:45;100591.81;;;25.51;67.98
71149;BME280;59072;42.144;25.200;2023-09-07T07:47:40;100589.16;;;25.59;66.65
71149;BME280;59072;42.144;25.200;2023-09-07T07:50:06;100605.09;;;25.80;60.60
71149;BME280;59072;42.144;25.200;2023-09-07T07:52:37;100606.59;;;26.00;62.98
71149;BME280;59072;42.144;25.200;2023-09-07T07:55:03;100602.41;;;26.48;52.94
71149;BME280;59072;42.144;25.200;2023-09-07T07:57:48;100587.31;;;26.50;57.22
71149;BME280;59072;42.144;25.200;2023-09-07T08:00:14;100589.09;;;26.55;59.28
71149;BME280;59072;42.144;25.200;2023-09-07T08:02:42;100588.09;;;26.73;58.32
71149;BME280;59072;42.144;25.200;2023-09-07T08:05:09;100591.03;;;26.54;55.50
71149;BME280;59072;42.144;25.200;2023-09-07T08:07:34;100590.63;;;26.16;55.90
71149;BME280;59072;42.144;25.200;2023-09-07T08:10:00;100599.31;;;26.63;55.39
71149;BME280;59072;42.144;25.200;2023-09-07T08:12:26;100589.84;;;27.09;54.17
71149;BME280;59072;42.144;25.200;2023-09-07T08:14:52;100606.13;;;27.14;48.29
71149;BME280;59072;42.144;25.200;2023-09-07T08:17:17;100600.97;;;27.13;45.71
71149;BME280;59072;42.144;25.200;2023-09-07T08:20:10;100601.06;;;27.39;44.70
71149;BME280;59072;42.144;25.200;2023-09-07T08:22:36;100592.53;;;27.40;47.90
71149;BME280;59072;42.144;25.200;2023-09-07T08:25:24;100592.38;;;26.97;47.18
71149;BME280;59072;42.144;25.200;2023-09-07T08:27:51;100591.22;;;27.38;46.88
71149;BME280;59072;42.144;25.200;2023-09-07T08:30:28;100596.25;;;27.62;45.99
71149;BME280;59072;42.144;25.200;2023-09-07T08:32:53;100598.34;;;27.82;44.70
71149;BME280;59072;42.144;25.200;2023-09-07T08:35:29;100594.53;;;28.10;39.88
71149;BME280;59072;42.144;25.200;2023-09-07T08:37:55;100584.97;;;28.24;41.49
71149;BME280;59072;42.144;25.200;2023-09-07T08:40:23;100586.13;;;28.15;43.99
71149;BME280;59072;42.144;25.200;2023-09-07T08:43:28;100584.25;;;28.62;41.78
71149;BME280;59072;42.144;25.200;2023-09-07T08:48:38;100587.34;;;28.61;42.34
71149;BME280;59072;42.144;25.200;2023-09-07T08:51:04;100574.19;;;28.28;39.87
71149;BME280;59072;42.144;25.200;2023-09-07T08:53:32;100581.31;;;27.94;40.96
71149;BME280;59072;42.144;25.200;2023-09-07T08:56:16;100582.91;;;28.13;39.78
71149;BME280;59072;42.144;25.200;2023-09-07T08:59:09;100579.84;;;27.88;39.75
71149;BME280;59072;42.144;25.200;2023-09-07T09:01:34;100571.00;;;28.00;40.81
71149;BME280;59072;42.144;25.200;2023-09-07T09:04:05;100556.13;;;27.83;41.70
71149;BME280;59072;42.144;25.200;2023-09-07T09:06:34;100564.13;;;27.28;42.32
71149;BME280;59072;42.144;25.200;2023-09-07T09:09:00;100569.16;;;27.34;40.29
71149;BME280;59072;42.144;25.200;2023-09-07T09:11:53;100562.66;;;27.21;39.85
71149;BME280;59072;42.144;25.200;2023-09-07T09:14:19;100554.03;;;27.54;38.75
71149;BME280;59072;42.144;25.200;2023-09-07T09:16:55;100555.16;;;28.14;38.39
71149;BME280;59072;42.144;25.200;2023-09-07T09:19:35;100556.97;;;28.66;36.69
71149;BME280;59072;42.144;25.200;2023-09-07T09:22:01;100549.16;;;28.85;36.74
71149;BME280;59072;42.144;25.200;2023-09-07T09:24:43;100551.78;;;28.73;36.67
71149;BME280;59072;42.144;25.200;2023-09-07T09:27:09;100547.81;;;28.92;37.37
71149;BME280;59072;42.144;25.200;2023-09-07T09:29:35;100540.47;;;28.75;37.06
71149;BME280;59072;42.144;25.200;2023-09-07T09:32:29;100541.53;;;28.91;36.98
71149;BME280;59072;42.144;25.200;2023-09-07T09:34:55;100534.63;;;29.36;36.40
71149;BME280;59072;42.144;25.200;2023-09-07T09:37:29;100532.25;;;29.55;35.63
71149;BME280;59072;42.144;25.200;2023-09-07T09:39:56;100537.19;;;29.41;35.43
71149;BME280;59072;42.144;25.200;2023-09-07T09:42:33;100534.09;;;29.63;34.63
71149;BME280;59072;42.144;25.200;2023-09-07T09:44:58;100539.25;;;29.23;34.10
71149;BME280;59072;42.144;25.200;2023-09-07T09:47:38;100533.97;;;29.18;36.05
71149;BME280;59072;42.144;25.200;2023-09-07T09:50:45;100526.97;;;28.91;36.33
71149;BME280;59072;42.144;25.200;2023-09-07T09:53:42;100522.19;;;29.09;37.59
71149;BME280;59072;42.144;25.200;2023-09-07T09:56:36;100511.38;;;29.54;35.00
71149;BME280;59072;42.144;25.200;2023-09-07T09:59:02;100515.72;;;30.10;34.72
71149;BME280;59072;42.144;25.200;2023-09-07T10:01:45;100510.09;;;30.52;34.92
71149;BME280;59072;42.144;25.200;2023-09-07T10:04:16;100507.47;;;30.10;35.98
71149;BME280;59072;42.144;25.200;2023-09-07T10:06:57;100511.97;;;29.81;34.96
71149;BME280;59072;42.144;25.200;2023-09-07T10:09:55;100512.56;;;29.87;34.96
71149;BME280;59072;42.144;25.200;2023-09-07T10:15:26;100506.66;;;29.42;36.32
71149;BME280;59072;42.144;25.200;2023-09-07T10:18:05;100501.25;;;29.88;34.99
71149;BME280;59072;42.144;25.200;2023-09-07T10:20:58;100502.84;;;29.89;34.99
71149;BME280;59072;42.144;25.200;2023-09-07T10:26:30;100497.47;;;30.26;33.51
71149;BME280;59072;42.144;25.200;2023-09-07T10:29:01;100498.41;;;30.30;33.22
71149;BME280;59072;42.144;25.200;2023-09-07T10:31:29;100492.91;;;30.79;33.59
71149;BME280;59072;42.144;25.200;2023-09-07T10:34:10;100480.22;;;31.28;32.12
71149;BME280;59072;42.144;25.200;2023-09-07T10:36:37;100490.03;;;31.97;31.85
71149;BME280;59072;42.144;25.200;2023-09-07T10:39:03;100487.31;;;31.41;31.70
71149;BME280;59072;42.144;25.200;2023-09-07T10:42:02;100469.03;;;31.08;31.07
71149;BME280;59072;42.144;25.200;2023-09-07T10:44:30;100475.69;;;30.95;31.49
71149;BME280;59072;42.144;25.200;2023-09-07T10:46:59;100477.97;;;30.80;32.60
71149;BME280;59072;42.144;25.200;2023-09-07T10:49:25;100483.25;;;31.10;32.60
71149;BME280;59072;42.144;25.200;2023-09-07T10:52:09;100476.84;;;31.06;31.37
71149;BME280;59072;42.144;25.200;2023-09-07T10:54:35;100467.91;;;30.97;32.72
71149;BME280;59072;42.144;25.200;2023-09-07T10:57:10;100463.91;;;30.70;31.71
71149;BME280;59072;42.144;25.200;2023-09-07T10:59:36;100476.38;;;31.04;32.63
71149;BME280;59072;42.144;25.200;2023-09-07T11:02:31;100461.69;;;31.00;31.57
71149;BME280;59072;42.144;25.200;2023-09-07T11:05:15;100456.69;;;30.65;31.67
71149;BME280;59072;42.144;25.200;2023-09-07T11:07:40;100455.34;;;31.12;31.49
71149;BME280;59072;42.144;25.200;2023-09-07T11:10:14;100446.34;;;30.37;32.45
71149;BME280;59072;42.144;25.200;2023-09-07T11:12:40;100455.69;;;30.12;33.36
71149;BME280;59072;42.144;25.200;2023-09-07T11:15:18;100454.53;;;29.67;33.70
71149;BME280;59072;42.144;25.200;2023-09-07T11:17:44;100441.13;;;29.65;34.19
71149;BME280;59072;42.144;25.200;2023-09-07T11:20:11;100445.38;;;29.96;31.97
71149;BME280;59072;42.144;25.200;2023-09-07T11:22:37;100448.91;;;29.63;32.19
71149;BME280;59072;42.144;25.200;2023-09-07T11:25:05;100429.78;;;30.00;33.27
71149;BME280;59072;42.144;25.200;2023-09-07T11:27:31;100439.09;;;30.08;32.02
71149;BME280;59072;42.144;25.200;2023-09-07T11:29:57;100431.78;;;29.79;32.21
71149;BME280;59072;42.144;25.200;2023-09-07T11:35:48;100430.75;;;29.50;33.58
71149;BME280;59072;42.144;25.200;2023-09-07T11:38:15;100431.59;;;29.84;33.29
71149;BME280;59072;42.144;25.200;2023-09-07T11:40:41;100431.19;;;29.40;33.56
71149;BME280;59072;42.144;25.200;2023-09-07T11:43:10;100422.41;;;29.25;34.54
71149;BME280;59072;42.144;25.200;2023-09-07T11:45:35;100433.69;;;29.33;33.49
71149;BME280;59072;42.144;25.200;2023-09-07T11:48:01;100422.47;;;28.96;34.02
71149;BME280;59072;42.144;25.200;2023-09-07T11:50:26;100415.59;;;28.90;33.93
71149;BME280;59072;42.144;25.200;2023-09-07T11:52:55;100409.94;;;29.16;33.67
71149;BME280;59072;42.144;25.200;2023-09-07T11:55:21;100411.75;;;29.03;33.54
71149;BME280;59072;42.144;25.200;2023-09-07T11:57:47;100401.78;;;28.77;34.64
71149;BME280;59072;42.144;25.200;2023-09-07T12:00:23;100392.31;;;28.87;34.33
71149;BME280;59072;42.144;25.200;2023-09-07T12:02:48;100400.91;;;28.85;34.04
71149;BME280;59072;42.144;25.200;2023-09-07T12:05:23;100393.47;;;28.86;33.68
71149;BME280;59072;42.144;25.200;2023-09-07T12:07:49;100401.50;;;29.33;33.98
71149;BME280;59072;42.144;25.200;2023-09-07T12:10:24;100407.94;;;29.37;32.54
71149;BME280;59072;42.144;25.200;2023-09-07T12:12:49;100406.00;;;29.38;33.51
71149;BME280;59072;42.144;25.200;2023-09-07T12:15:24;100396.25;;;29.28;33.93
71149;BME280;59072;42.144;25.200;2023-09-07T12:17:49;100391.03;;;29.93;32.74
71149;BME280;59072;42.144;25.200;2023-09-07T12:20:27;100381.47;;;30.36;32.04
71149;BME280;59072;42.144;25.200;2023-09-07T12:22:53;100384.09;;;30.20;32.02
71149;BME280;59072;42.144;25.200;2023-09-07T12:25:28;100377.66;;;29.92;31.62
71149;BME280;59072;42.144;25.200;2023-09-07T12:27:53;100386.63;;;29.68;31.44
71149;BME280;59072;42.144;25.200;2023-09-07T12:30:29;100380.63;;;29.53;31.73
71149;BME280;59072;42.144;25.200;2023-09-07T12:32:54;100380.84;;;29.81;31.98
71149;BME280;59072;42.144;25.200;2023-09-07T12:35:32;100380.94;;;29.85;32.23
71149;BME280;59072;42.144;25.200;2023-09-07T12:37:57;100384.78;;;29.59;32.33
71149;BME280;59072;42.144;25.200;2023-09-07T12:40:32;100377.59;;;29.34;32.03
71149;BME280;59072;42.144;25.200;2023-09-07T12:42:58;100374.00;;;29.67;32.15
71149;BME280;59072;42.144;25.200;2023-09-07T12:45:34;100377.09;;;30.23;31.37
71149;BME280;59072;42.144;25.200;2023-09-07T12:48:00;100372.13;;;30.78;30.17
71149;BME280;59072;42.144;25.200;2023-09-07T12:50:38;100378.72;;;30.24;30.63
71149;BME280;59072;42.144;25.200;2023-09-07T12:53:05;100383.69;;;29.73;30.82
71149;BME280;59072;42.144;25.200;2023-09-07T12:55:40;100379.50;;;29.67;31.54
71149;BME280;59072;42.144;25.200;2023-09-07T12:58:05;100369.94;;;29.85;31.33
71149;BME280;59072;42.144;25.200;2023-09-07T13:00:49;100367.34;;;30.25;30.49
71149;BME280;59072;42.144;25.200;2023-09-07T13:03:42;100376.88;;;30.28;30.34
71149;BME280;59072;42.144;25.200;2023-09-07T13:06:07;100365.38;;;30.01;30.87
71149;BME280;59072;42.144;25.200;2023-09-07T13:08:43;100379.38;;;31.11;29.73
71149;BME280;59072;42.144;25.200;2023-09-07T13:11:08;100369.28;;;31.75;29.07
71149;BME280;59072;42.144;25.200;2023-09-07T13:13:52;100385.34;;;31.41;29.39
71149;BME280;59072;42.144;25.200;2023-09-07T13:16:46;100383.72;;;31.12;29.22
71149;BME280;59072;42.144;25.200;2023-09-07T13:19:14;100371.91;;;31.11;29.72
71149;BME280;59072;42.144;25.200;2023-09-07T13:21:57;100376.56;;;30.95;30.07